createdAt,value
2023-12-28T00:00:58.528Z,6.34
2023-12-28T00:01:58.470Z,6.44
2023-12-28T00:02:58.556Z,6.44
2023-12-28T00:03:58.529Z,6.60
2023-12-28T00:04:58.441Z,6.52
2023-12-28T00:05:58.473Z,6.54
2023-12-28T00:06:58.457Z,6.57
2023-12-28T00:07:58.700Z,6.57
2023-12-28T00:09:04.627Z,6.67
2023-12-28T00:10:00.443Z,6.64
2023-12-28T00:10:58.373Z,6.59
2023-12-28T00:11:58.369Z,6.71
2023-12-28T00:12:58.386Z,6.77
2023-12-28T00:13:58.364Z,6.67
2023-12-28T00:14:58.366Z,6.80
2023-12-28T00:15:58.330Z,6.80
2023-12-28T00:16:58.328Z,6.85
2023-12-28T00:17:58.474Z,6.77
2023-12-28T00:18:58.437Z,6.83
2023-12-28T00:19:58.297Z,6.86
2023-12-28T00:20:58.294Z,6.83
2023-12-28T00:21:58.276Z,6.95
2023-12-28T00:22:58.258Z,6.90
2023-12-28T00:23:58.263Z,6.85
2023-12-28T00:24:58.251Z,6.87
2023-12-28T00:25:58.206Z,6.87
2023-12-28T00:26:58.225Z,6.96
2023-12-28T00:27:58.451Z,6.87
2023-12-28T00:28:58.173Z,6.95
2023-12-28T00:29:58.178Z,6.96
2023-12-28T00:30:58.246Z,7.00
2023-12-28T00:31:58.154Z,7.03
2023-12-28T00:32:58.151Z,7.03
2023-12-28T00:33:58.219Z,7.08
2023-12-28T00:34:58.176Z,7.01
2023-12-28T00:35:58.097Z,7.03
2023-12-28T00:36:58.150Z,7.08
2023-12-28T00:37:58.351Z,7.01
2023-12-28T00:38:58.068Z,7.10
2023-12-28T00:39:58.099Z,7.10
2023-12-28T00:40:58.043Z,7.14
2023-12-28T00:41:58.045Z,7.18
2023-12-28T00:42:58.085Z,7.11
2023-12-28T00:43:58.016Z,7.13
2023-12-28T00:44:58.016Z,7.13
2023-12-28T00:45:58.023Z,7.15
2023-12-28T00:46:57.997Z,7.29
2023-12-28T00:47:58.824Z,7.23
2023-12-28T00:48:58.037Z,7.26
2023-12-28T00:49:58.031Z,7.25
2023-12-28T00:50:57.942Z,7.23
2023-12-28T00:51:57.950Z,7.23
2023-12-28T00:52:57.946Z,7.33
2023-12-28T00:53:57.917Z,7.31
2023-12-28T00:54:57.934Z,7.29
2023-12-28T00:55:57.890Z,7.36
2023-12-28T00:56:57.892Z,7.31
2023-12-28T00:57:58.209Z,7.29
2023-12-28T00:58:57.853Z,7.28
2023-12-28T00:59:57.846Z,7.36
2023-12-28T01:00:57.948Z,7.32
2023-12-28T01:01:57.823Z,7.39
2023-12-28T01:02:57.826Z,7.37
2023-12-28T01:03:57.911Z,7.39
2023-12-28T01:04:57.971Z,7.36
2023-12-28T01:05:57.842Z,7.37
2023-12-28T01:06:57.813Z,7.40
2023-12-28T01:07:58.127Z,7.36
2023-12-28T01:08:57.770Z,7.41
2023-12-28T01:09:57.766Z,7.43
2023-12-28T01:10:57.742Z,7.40
2023-12-28T01:11:57.739Z,7.37
2023-12-28T01:12:57.818Z,7.40
2023-12-28T01:13:57.707Z,7.43
2023-12-28T01:14:57.714Z,7.43
2023-12-28T01:15:57.696Z,7.37
2023-12-28T01:16:57.704Z,7.44
2023-12-28T01:17:58.090Z,7.32
2023-12-28T01:18:57.839Z,7.43
2023-12-28T01:19:57.762Z,7.29
2023-12-28T01:20:57.646Z,7.28
2023-12-28T01:21:57.646Z,7.37
2023-12-28T01:22:57.615Z,7.31
2023-12-28T01:23:57.622Z,7.37
2023-12-28T01:24:57.620Z,7.21
2023-12-28T01:25:57.577Z,7.26
2023-12-28T01:26:57.588Z,7.21
2023-12-28T01:27:58.032Z,7.23
2023-12-28T01:28:57.547Z,7.22
2023-12-28T01:29:57.538Z,7.25
2023-12-28T01:30:57.558Z,7.22
2023-12-28T01:31:57.530Z,7.26
2023-12-28T01:32:57.636Z,7.25
2023-12-28T01:33:57.568Z,7.25
2023-12-28T01:34:57.519Z,7.22
2023-12-28T01:35:57.472Z,7.15
2023-12-28T01:36:57.530Z,7.19
2023-12-28T01:37:57.629Z,7.25
2023-12-28T01:38:57.456Z,7.25
2023-12-28T01:39:57.506Z,7.19
2023-12-28T01:40:57.414Z,7.26
2023-12-28T01:41:57.402Z,7.22
2023-12-28T01:42:57.482Z,7.19
2023-12-28T01:43:57.411Z,7.21
2023-12-28T01:44:57.379Z,7.31
2023-12-28T01:45:58.398Z,7.25
2023-12-28T01:46:57.369Z,7.31
2023-12-28T01:47:57.668Z,7.26
2023-12-28T01:48:57.677Z,7.36
2023-12-28T01:49:57.371Z,7.23
2023-12-28T01:50:57.362Z,7.23
2023-12-28T01:51:57.497Z,7.33
2023-12-28T01:52:57.332Z,7.36
2023-12-28T01:53:57.270Z,7.28
2023-12-28T01:54:57.304Z,7.26
2023-12-28T01:55:57.258Z,7.25
2023-12-28T01:56:57.257Z,7.23
2023-12-28T01:57:57.520Z,7.28
2023-12-28T01:58:57.238Z,7.28
2023-12-28T01:59:57.234Z,7.31
2023-12-28T02:00:57.263Z,7.32
2023-12-28T02:01:57.194Z,7.31
2023-12-28T02:02:57.179Z,7.26
2023-12-28T02:03:57.263Z,7.40
2023-12-28T02:04:57.179Z,7.31
2023-12-28T02:05:57.160Z,7.41
2023-12-28T02:06:57.207Z,7.36
2023-12-28T02:07:57.479Z,7.41
2023-12-28T02:08:57.116Z,7.37
2023-12-28T02:09:57.138Z,7.39
2023-12-28T02:10:57.100Z,7.39
2023-12-28T02:11:57.091Z,7.47
2023-12-28T02:12:57.114Z,7.41
2023-12-28T02:13:57.082Z,7.36
2023-12-28T02:14:57.044Z,7.40
2023-12-28T02:15:57.081Z,7.37
2023-12-28T02:16:57.031Z,7.33
2023-12-28T02:17:57.347Z,7.31
2023-12-28T02:18:57.026Z,7.32
2023-12-28T02:19:57.006Z,7.23
2023-12-28T02:20:56.976Z,7.39
2023-12-28T02:21:57.001Z,7.32
2023-12-28T02:22:57.015Z,7.26
2023-12-28T02:23:56.942Z,7.36
2023-12-28T02:24:56.941Z,7.40
2023-12-28T02:25:56.960Z,7.32
2023-12-28T02:26:56.921Z,7.32
2023-12-28T02:27:57.423Z,7.41
2023-12-28T02:28:56.901Z,7.31
2023-12-28T02:29:56.896Z,7.36
2023-12-28T02:30:56.949Z,7.39
2023-12-28T02:31:56.874Z,7.39
2023-12-28T02:32:57.007Z,7.41
2023-12-28T02:33:56.922Z,7.46
2023-12-28T02:34:56.836Z,7.39
2023-12-28T02:35:56.873Z,7.44
2023-12-28T02:36:56.861Z,7.47
2023-12-28T02:37:57.265Z,7.46
2023-12-28T02:38:56.787Z,7.50
2023-12-28T02:39:56.855Z,7.46
2023-12-28T02:40:56.804Z,7.51
2023-12-28T02:41:56.763Z,7.50
2023-12-28T02:42:56.778Z,7.51
2023-12-28T02:43:56.724Z,7.48
2023-12-28T02:44:56.731Z,7.53
2023-12-28T02:45:56.897Z,7.56
2023-12-28T02:46:56.707Z,7.51
2023-12-28T02:47:57.070Z,7.56
2023-12-28T02:48:56.756Z,7.61
2023-12-28T02:49:56.791Z,7.64
2023-12-28T02:50:56.686Z,7.69
2023-12-28T02:51:56.720Z,7.62
2023-12-28T02:52:56.636Z,7.64
2023-12-28T02:53:56.633Z,7.53
2023-12-28T02:54:56.667Z,7.58
2023-12-28T02:55:56.652Z,7.56
2023-12-28T02:56:56.591Z,7.62
2023-12-28T02:57:57.079Z,7.58
2023-12-28T02:58:56.567Z,7.58
2023-12-28T02:59:56.577Z,7.56
2023-12-28T03:00:56.657Z,7.53
2023-12-28T03:01:57.554Z,7.53
2023-12-28T03:02:56.648Z,7.62
2023-12-28T03:03:56.541Z,7.55
2023-12-28T03:04:56.568Z,7.56
2023-12-28T03:05:56.586Z,7.55
2023-12-28T03:06:56.603Z,7.64
2023-12-28T03:07:56.859Z,7.59
2023-12-28T03:08:56.492Z,7.55
2023-12-28T03:09:56.502Z,7.58
2023-12-28T03:10:56.551Z,7.62
2023-12-28T03:11:56.454Z,7.66
2023-12-28T03:12:56.498Z,7.66
2023-12-28T03:13:56.414Z,7.61
2023-12-28T03:14:56.433Z,7.72
2023-12-28T03:15:56.450Z,7.69
2023-12-28T03:16:56.374Z,7.69
2023-12-28T03:17:56.648Z,7.66
2023-12-28T03:18:56.395Z,7.74
2023-12-28T03:19:56.433Z,7.62
2023-12-28T03:20:56.347Z,7.75
2023-12-28T03:21:56.380Z,7.67
2023-12-28T03:22:56.347Z,7.61
2023-12-28T03:23:56.305Z,7.59
2023-12-28T03:24:56.317Z,7.70
2023-12-28T03:25:56.313Z,7.67
2023-12-28T03:26:56.273Z,7.70
2023-12-28T03:27:56.543Z,7.64
2023-12-28T03:28:56.246Z,7.74
2023-12-28T03:29:56.242Z,7.69
2023-12-28T03:30:56.319Z,7.74
2023-12-28T03:31:56.221Z,7.87
2023-12-28T03:32:56.249Z,7.74
2023-12-28T03:33:56.250Z,7.87
2023-12-28T03:34:56.175Z,7.77
2023-12-28T03:35:56.164Z,7.78
2023-12-28T03:36:56.223Z,7.78
2023-12-28T03:37:56.627Z,7.81
2023-12-28T03:38:56.141Z,7.81
2023-12-28T03:39:56.273Z,7.80
2023-12-28T03:40:56.136Z,7.70
2023-12-28T03:41:56.115Z,7.74
2023-12-28T03:42:56.172Z,7.88
2023-12-28T03:43:56.095Z,7.74
2023-12-28T03:44:56.090Z,7.67
2023-12-28T03:45:56.140Z,7.74
2023-12-28T03:46:56.057Z,7.58
2023-12-28T03:47:56.514Z,7.62
2023-12-28T03:48:56.161Z,7.55
2023-12-28T03:49:56.113Z,7.70
2023-12-28T03:50:56.025Z,7.75
2023-12-28T03:51:56.121Z,7.69
2023-12-28T03:52:56.036Z,7.74
2023-12-28T03:53:55.980Z,7.77
2023-12-28T03:54:56.064Z,7.85
2023-12-28T03:55:55.973Z,7.85
2023-12-28T03:56:55.954Z,7.84
2023-12-28T03:57:56.086Z,7.88
2023-12-28T03:58:55.984Z,7.78
2023-12-28T03:59:55.917Z,7.75
2023-12-28T04:00:56.001Z,7.75
2023-12-28T04:01:55.945Z,7.64
2023-12-28T04:02:55.900Z,7.62
2023-12-28T04:03:55.953Z,7.77
2023-12-28T04:04:55.923Z,7.66
2023-12-28T04:05:55.867Z,7.72
2023-12-28T04:06:55.881Z,7.64
2023-12-28T04:07:55.994Z,7.67
2023-12-28T04:08:55.814Z,7.70
2023-12-28T04:09:55.891Z,7.77
2023-12-28T04:10:55.820Z,7.74
2023-12-28T04:11:55.796Z,7.93
2023-12-28T04:12:55.849Z,7.81
2023-12-28T04:13:55.785Z,7.80
2023-12-28T04:14:55.767Z,7.78
2023-12-28T04:15:55.828Z,7.90
2023-12-28T04:16:55.753Z,7.83
2023-12-28T04:17:55.964Z,7.93
2023-12-28T04:18:55.809Z,7.83
2023-12-28T04:19:55.948Z,7.90
2023-12-28T04:20:55.705Z,7.93
2023-12-28T04:21:55.729Z,7.87
2023-12-28T04:22:55.681Z,7.85
2023-12-28T04:23:55.688Z,7.80
2023-12-28T04:24:55.799Z,7.83
2023-12-28T04:25:55.671Z,7.81
2023-12-28T04:26:55.637Z,7.84
2023-12-28T04:27:55.801Z,7.91
2023-12-28T04:28:55.607Z,7.83
2023-12-28T04:29:55.605Z,7.88
2023-12-28T04:30:55.683Z,7.83
2023-12-28T04:31:55.606Z,7.87
2023-12-28T04:32:55.591Z,7.74
2023-12-28T04:33:55.667Z,7.80
2023-12-28T04:34:55.599Z,7.87
2023-12-28T04:35:55.552Z,7.83
2023-12-28T04:36:55.607Z,7.87
2023-12-28T04:37:55.732Z,7.81
2023-12-28T04:38:55.496Z,7.64
2023-12-28T04:39:55.548Z,7.66
2023-12-28T04:40:55.510Z,7.70
2023-12-28T04:41:55.487Z,7.81
2023-12-28T04:42:55.472Z,7.67
2023-12-28T04:43:55.446Z,7.74
2023-12-28T04:44:55.451Z,7.67
2023-12-28T04:45:55.563Z,7.75
2023-12-28T04:46:55.450Z,7.69
2023-12-28T04:47:55.496Z,7.72
2023-12-28T04:48:55.451Z,7.66
2023-12-28T04:49:55.475Z,7.64
2023-12-28T04:50:55.382Z,7.74
2023-12-28T04:51:55.394Z,7.58
2023-12-28T04:52:55.353Z,7.61
2023-12-28T04:53:55.357Z,7.67
2023-12-28T04:54:55.371Z,7.69
2023-12-28T04:55:55.316Z,7.66
2023-12-28T04:56:55.317Z,7.53
2023-12-28T04:57:55.399Z,7.56
2023-12-28T04:58:55.287Z,7.55
2023-12-28T04:59:55.277Z,7.61
2023-12-28T05:00:55.368Z,7.55
2023-12-28T05:01:55.272Z,7.50
2023-12-28T05:02:55.258Z,7.55
2023-12-28T05:03:55.270Z,7.46
2023-12-28T05:04:55.377Z,7.55
2023-12-28T05:05:55.226Z,7.37
2023-12-28T05:06:55.257Z,7.44
2023-12-28T05:07:55.199Z,7.37
2023-12-28T05:08:55.193Z,7.43
2023-12-28T05:09:55.228Z,7.41
2023-12-28T05:10:55.183Z,7.43
2023-12-28T05:11:55.195Z,7.39
2023-12-28T05:12:58.355Z,7.31
2023-12-28T05:13:57.124Z,7.40
2023-12-28T05:14:55.128Z,7.40
2023-12-28T05:15:55.222Z,7.36
2023-12-28T05:16:55.111Z,7.29
2023-12-28T05:17:55.321Z,7.36
2023-12-28T05:18:55.279Z,7.23
2023-12-28T05:19:55.138Z,7.33
2023-12-28T05:20:55.086Z,7.31
2023-12-28T05:21:55.120Z,7.31
2023-12-28T05:22:55.035Z,7.36
2023-12-28T05:23:55.031Z,7.25
2023-12-28T05:24:55.078Z,7.26
2023-12-28T05:25:55.003Z,7.36
2023-12-28T05:26:55.014Z,7.28
2023-12-28T05:27:55.063Z,7.33
2023-12-28T05:28:54.961Z,7.31
2023-12-28T05:29:54.959Z,7.37
2023-12-28T05:30:55.006Z,7.28
2023-12-28T05:31:54.940Z,7.41
2023-12-28T05:32:56.026Z,7.43
2023-12-28T05:33:55.002Z,7.40
2023-12-28T05:34:54.894Z,7.39
2023-12-28T05:35:54.894Z,7.44
2023-12-28T05:37:26.822Z,7.39
2023-12-28T05:37:54.949Z,7.55
2023-12-28T05:38:55.882Z,7.37
2023-12-28T05:39:54.859Z,7.41
2023-12-28T05:40:54.854Z,7.51
2023-12-28T05:41:54.829Z,7.43
2023-12-28T05:42:54.892Z,7.41
2023-12-28T05:43:54.841Z,7.40
2023-12-28T05:44:54.833Z,7.41
2023-12-28T05:45:54.865Z,7.46
2023-12-28T05:46:54.793Z,7.40
2023-12-28T05:47:54.891Z,7.44
2023-12-28T05:48:54.870Z,7.48
2023-12-28T05:49:54.982Z,7.55
2023-12-28T05:50:54.738Z,7.46
2023-12-28T05:51:54.733Z,7.46
2023-12-28T05:52:54.711Z,7.47
2023-12-28T05:53:54.741Z,7.50
2023-12-28T05:54:54.894Z,7.50
2023-12-28T05:55:54.684Z,7.50
2023-12-28T05:56:54.680Z,7.56
2023-12-28T05:57:54.891Z,7.47
2023-12-28T05:58:54.653Z,7.62
2023-12-28T05:59:54.656Z,7.53
2023-12-28T06:00:54.683Z,7.50
2023-12-28T06:01:54.629Z,7.55
2023-12-28T06:02:54.594Z,7.62
2023-12-28T06:03:54.638Z,7.56
2023-12-28T06:04:54.828Z,7.59
2023-12-28T06:05:54.616Z,7.55
2023-12-28T06:06:55.614Z,7.66
2023-12-28T06:07:54.575Z,7.67
2023-12-28T06:08:54.540Z,7.50
2023-12-28T06:09:54.605Z,7.62
2023-12-28T06:10:54.534Z,7.64
2023-12-28T06:11:54.525Z,7.64
2023-12-28T06:12:54.515Z,7.58
2023-12-28T06:13:54.498Z,7.59
2023-12-28T06:14:54.496Z,7.59
2023-12-28T06:15:54.518Z,7.62
2023-12-28T06:16:54.479Z,7.51
2023-12-28T06:17:54.524Z,7.61
2023-12-28T06:18:54.546Z,7.59
2023-12-28T06:19:54.654Z,7.56
2023-12-28T06:20:54.442Z,7.53
2023-12-28T06:21:54.486Z,7.51
2023-12-28T06:22:54.373Z,7.61
2023-12-28T06:23:54.374Z,7.55
2023-12-28T06:24:54.395Z,7.55
2023-12-28T06:25:54.356Z,7.53
2023-12-28T06:26:54.338Z,7.58
2023-12-28T06:27:54.419Z,7.55
2023-12-28T06:28:54.306Z,7.51
2023-12-28T06:29:54.341Z,7.51
2023-12-28T06:30:54.341Z,7.48
2023-12-28T06:31:54.283Z,7.46
2023-12-28T06:32:54.395Z,7.43
2023-12-28T06:33:54.340Z,7.46
2023-12-28T06:34:54.370Z,7.46
2023-12-28T06:35:54.240Z,7.48
2023-12-28T06:36:54.276Z,7.48
2023-12-28T06:37:54.256Z,7.44
2023-12-28T06:38:54.208Z,7.44
2023-12-28T06:39:54.316Z,7.53
2023-12-28T06:40:54.187Z,7.46
2023-12-28T06:41:54.219Z,7.48
2023-12-28T06:42:54.227Z,7.41
2023-12-28T06:43:54.128Z,7.44
2023-12-28T06:44:54.156Z,7.41
2023-12-28T06:45:54.145Z,7.39
2023-12-28T06:46:54.126Z,7.43
2023-12-28T06:47:54.170Z,7.44
2023-12-28T06:48:54.168Z,7.36
2023-12-28T06:49:54.126Z,7.39
2023-12-28T06:50:54.090Z,7.37
2023-12-28T06:51:54.115Z,7.39
2023-12-28T06:52:54.043Z,7.39
2023-12-28T06:53:54.121Z,7.43
2023-12-28T06:54:54.140Z,7.36
2023-12-28T06:55:54.002Z,7.41
2023-12-28T06:56:54.019Z,7.39
2023-12-28T06:57:54.099Z,7.47
2023-12-28T06:58:54.022Z,7.41
2023-12-28T06:59:53.976Z,7.48
2023-12-28T07:00:54.060Z,7.48
2023-12-28T07:01:53.963Z,7.41
2023-12-28T07:02:54.005Z,7.50
2023-12-28T07:03:53.994Z,7.53
2023-12-28T07:04:53.996Z,7.47
2023-12-28T07:05:53.912Z,7.48
2023-12-28T07:06:53.977Z,7.47
2023-12-28T07:07:53.896Z,7.56
2023-12-28T07:08:53.875Z,7.47
2023-12-28T07:09:53.915Z,7.53
2023-12-28T07:10:53.854Z,7.50
2023-12-28T07:11:53.873Z,7.53
2023-12-28T07:12:53.921Z,7.51
2023-12-28T07:13:53.830Z,7.59
2023-12-28T07:14:53.813Z,7.59
2023-12-28T07:15:57.650Z,7.56
2023-12-28T07:16:54.800Z,7.59
2023-12-28T07:17:53.845Z,7.59
2023-12-28T07:18:54.004Z,7.67
2023-12-28T07:19:53.828Z,7.55
2023-12-28T07:20:53.747Z,7.58
2023-12-28T07:21:53.800Z,7.61
2023-12-28T07:22:54.957Z,7.59
2023-12-28T07:23:54.710Z,7.56
2023-12-28T07:24:53.769Z,7.55
2023-12-28T07:25:53.716Z,7.70
2023-12-28T07:26:53.688Z,7.70
2023-12-28T07:27:53.706Z,7.72
2023-12-28T07:28:53.664Z,7.74
2023-12-28T07:29:53.710Z,7.77
2023-12-28T07:30:53.691Z,7.84
2023-12-28T07:31:53.631Z,7.74
2023-12-28T07:32:53.700Z,7.81
2023-12-28T07:33:53.731Z,7.85
2023-12-28T07:34:53.588Z,7.83
2023-12-28T07:35:53.591Z,7.83
2023-12-28T07:36:53.606Z,7.78
2023-12-28T07:37:53.563Z,7.83
2023-12-28T07:38:53.544Z,7.77
2023-12-28T07:39:53.602Z,7.85
2023-12-28T07:40:53.556Z,7.91
2023-12-28T07:41:53.544Z,7.91
2023-12-28T07:42:53.665Z,7.81
2023-12-28T07:43:53.509Z,7.90
2023-12-28T07:44:53.487Z,7.84
2023-12-28T07:45:53.489Z,7.85
2023-12-28T07:46:53.460Z,7.93
2023-12-28T07:47:53.797Z,7.87
2023-12-28T07:48:53.643Z,7.99
2023-12-28T07:49:53.516Z,7.93
2023-12-28T07:50:53.423Z,7.96
2023-12-28T07:51:53.439Z,7.91
2023-12-28T07:52:53.389Z,7.96
2023-12-28T07:53:53.441Z,7.96
2023-12-28T07:54:53.424Z,7.98
2023-12-28T07:55:53.355Z,8.03
2023-12-28T07:56:53.359Z,7.95
2023-12-28T07:57:53.359Z,8.03
2023-12-28T07:58:53.319Z,8.02
2023-12-28T07:59:53.362Z,7.98
2023-12-28T08:00:53.409Z,7.99
2023-12-28T08:01:53.308Z,8.11
2023-12-28T08:02:53.290Z,8.03
2023-12-28T08:03:53.324Z,8.05
2023-12-28T08:04:53.281Z,8.06
2023-12-28T08:05:53.373Z,8.08
2023-12-28T08:06:53.259Z,8.05
2023-12-28T08:07:53.268Z,8.06
2023-12-28T08:08:53.220Z,8.06
2023-12-28T08:09:53.265Z,8.09
2023-12-28T08:10:53.218Z,8.14
2023-12-28T08:11:53.221Z,8.23
2023-12-28T08:12:53.241Z,8.13
2023-12-28T08:13:53.198Z,8.20
2023-12-28T08:14:53.203Z,8.21
2023-12-28T08:15:53.218Z,8.18
2023-12-28T08:16:53.139Z,8.13
2023-12-28T08:17:53.321Z,8.17
2023-12-28T08:18:53.224Z,8.14
2023-12-28T08:19:53.287Z,8.16
2023-12-28T08:20:53.113Z,8.21
2023-12-28T08:21:53.145Z,8.18
2023-12-28T08:23:05.712Z,8.18
2023-12-28T08:23:55.085Z,8.21
2023-12-28T08:24:53.093Z,8.18
2023-12-28T08:25:53.033Z,8.13
2023-12-28T08:26:53.027Z,8.18
2023-12-28T08:27:53.114Z,8.17
2023-12-28T08:28:53.011Z,8.20
2023-12-28T08:29:53.022Z,8.21
2023-12-28T08:30:53.045Z,8.16
2023-12-28T08:31:53.081Z,8.13
2023-12-28T08:32:53.062Z,8.13
2023-12-28T08:33:53.152Z,8.26
2023-12-28T08:34:53.050Z,8.23
2023-12-28T08:35:52.955Z,8.17
2023-12-28T08:36:52.970Z,8.27
2023-12-28T08:37:53.900Z,8.31
2023-12-28T08:38:52.904Z,8.17
2023-12-28T08:39:52.964Z,8.32
2023-12-28T08:40:52.889Z,8.18
2023-12-28T08:41:52.880Z,8.16
2023-12-28T08:42:52.878Z,8.23
2023-12-28T08:43:52.858Z,8.18
2023-12-28T08:44:52.897Z,8.17
2023-12-28T08:45:52.895Z,8.24
2023-12-28T08:46:52.814Z,8.23
2023-12-28T08:47:52.859Z,8.23
2023-12-28T08:48:52.852Z,8.23
2023-12-28T08:49:52.903Z,8.20
2023-12-28T08:50:52.797Z,8.23
2023-12-28T08:51:52.814Z,8.17
2023-12-28T08:52:52.732Z,8.13
2023-12-28T08:53:52.760Z,8.16
2023-12-28T08:54:53.768Z,8.20
2023-12-28T08:55:52.724Z,8.20
2023-12-28T08:56:54.220Z,8.26
2023-12-28T08:57:53.778Z,8.17
2023-12-28T08:58:52.752Z,8.21
2023-12-28T08:59:52.672Z,8.26
2023-12-28T09:00:52.903Z,8.20
2023-12-28T09:01:52.727Z,8.26
2023-12-28T09:02:52.741Z,8.31
2023-12-28T09:03:52.798Z,8.27
2023-12-28T09:04:52.701Z,8.36
2023-12-28T09:05:52.635Z,8.27
2023-12-28T09:06:52.692Z,8.38
2023-12-28T09:07:52.635Z,8.34
2023-12-28T09:08:52.588Z,8.21
2023-12-28T09:09:52.642Z,8.35
2023-12-28T09:10:52.578Z,8.36
2023-12-28T09:11:52.566Z,8.31
2023-12-28T09:12:52.668Z,8.24
2023-12-28T09:13:52.578Z,8.41
2023-12-28T09:14:52.524Z,8.35
2023-12-28T09:15:52.534Z,8.39
2023-12-28T09:16:52.505Z,8.35
2023-12-28T09:17:52.643Z,8.39
2023-12-28T09:18:52.735Z,8.35
2023-12-28T09:19:52.568Z,8.39
2023-12-28T09:20:52.484Z,8.36
2023-12-28T09:21:52.501Z,8.49
2023-12-28T09:22:52.457Z,8.36
2023-12-28T09:23:52.432Z,8.44
2023-12-28T09:24:52.447Z,8.45
2023-12-28T09:25:52.413Z,8.52
2023-12-28T09:26:52.416Z,8.44
2023-12-28T09:27:52.426Z,8.49
2023-12-28T09:28:52.379Z,8.53
2023-12-28T09:29:52.366Z,8.46
2023-12-28T09:30:52.406Z,8.45
2023-12-28T09:31:52.407Z,8.44
2023-12-28T09:32:52.357Z,8.54
2023-12-28T09:33:52.510Z,8.54
2023-12-28T09:34:52.378Z,8.56
2023-12-28T09:35:53.398Z,8.52
2023-12-28T09:36:53.380Z,8.61
2023-12-28T09:37:52.316Z,8.49
2023-12-28T09:38:52.257Z,8.63
2023-12-28T09:39:52.307Z,8.60
2023-12-28T09:40:52.243Z,8.56
2023-12-28T09:41:52.200Z,8.64
2023-12-28T09:42:52.238Z,8.60
2023-12-28T09:43:53.008Z,8.61
2023-12-28T09:44:52.190Z,8.63
2023-12-28T09:45:52.212Z,8.64
2023-12-28T09:46:53.151Z,8.64
2023-12-28T09:47:52.538Z,8.59
2023-12-28T09:48:52.195Z,8.66
2023-12-28T09:49:52.264Z,8.61
2023-12-28T09:50:52.133Z,8.68
2023-12-28T09:51:52.134Z,8.71
2023-12-28T09:52:52.091Z,8.72
2023-12-28T09:53:52.101Z,8.72
2023-12-28T09:54:52.191Z,8.79
2023-12-28T09:55:52.092Z,8.71
2023-12-28T09:56:52.112Z,8.81
2023-12-28T09:57:52.071Z,8.77
2023-12-28T09:58:52.308Z,8.71
2023-12-28T09:59:52.013Z,8.81
2023-12-28T10:00:52.351Z,8.79
2023-12-28T10:01:52.091Z,8.87
2023-12-28T10:02:51.984Z,8.95
2023-12-28T10:03:52.075Z,9.08
2023-12-28T10:04:51.981Z,9.02
2023-12-28T10:05:51.959Z,8.99
2023-12-28T10:06:51.992Z,9.12
2023-12-28T10:07:52.147Z,9.21
2023-12-28T10:08:52.017Z,9.19
2023-12-28T10:09:51.961Z,9.15
2023-12-28T10:10:52.153Z,9.16
2023-12-28T10:11:51.917Z,9.12
2023-12-28T10:12:51.994Z,9.13
2023-12-28T10:13:51.886Z,9.21
2023-12-28T10:14:51.868Z,9.16
2023-12-28T10:15:51.901Z,9.26
2023-12-28T10:16:51.874Z,9.39
2023-12-28T10:17:51.923Z,9.33
2023-12-28T10:18:51.952Z,9.27
2023-12-28T10:19:52.172Z,9.27
2023-12-28T10:20:51.863Z,9.34
2023-12-28T10:21:51.868Z,9.45
2023-12-28T10:22:51.809Z,9.52
2023-12-28T10:23:51.771Z,9.67
2023-12-28T10:24:51.848Z,9.63
2023-12-28T10:25:51.763Z,9.92
2023-12-28T10:26:51.752Z,10.00
2023-12-28T10:27:51.804Z,10.09
2023-12-28T10:28:51.750Z,10.05
2023-12-28T10:29:51.754Z,10.06
2023-12-28T10:30:51.760Z,10.03
2023-12-28T10:31:51.726Z,10.07
2023-12-28T10:32:51.772Z,10.13
2023-12-28T10:33:51.806Z,10.17
2023-12-28T10:34:51.722Z,10.00
2023-12-28T10:35:51.663Z,10.17
2023-12-28T10:36:51.677Z,10.18
2023-12-28T10:37:51.651Z,10.10
2023-12-28T10:38:51.618Z,10.21
2023-12-28T10:39:51.649Z,10.38
2023-12-28T10:40:51.604Z,10.53
2023-12-28T10:41:51.636Z,10.58
2023-12-28T10:42:51.607Z,10.68
2023-12-28T10:43:51.566Z,10.68
2023-12-28T10:44:51.566Z,10.72
2023-12-28T10:45:51.597Z,10.71
2023-12-28T10:46:51.557Z,10.79
2023-12-28T10:47:51.575Z,10.80
2023-12-28T10:48:51.604Z,10.89
2023-12-28T10:49:51.666Z,10.90
2023-12-28T10:50:51.574Z,11.02
2023-12-28T10:51:51.563Z,11.10
2023-12-28T10:52:51.511Z,10.83
2023-12-28T10:53:51.494Z,10.57
2023-12-28T10:54:51.518Z,10.72
2023-12-28T10:55:51.473Z,10.87
2023-12-28T10:56:51.439Z,11.07
2023-12-28T10:57:51.467Z,11.19
2023-12-28T10:58:51.464Z,11.18
2023-12-28T10:59:51.415Z,11.05
2023-12-28T11:00:51.457Z,11.15
2023-12-28T11:01:51.438Z,11.07
2023-12-28T11:02:51.410Z,11.20
2023-12-28T11:03:51.418Z,11.05
2023-12-28T11:04:51.442Z,11.18
2023-12-28T11:05:51.351Z,11.10
2023-12-28T11:06:51.409Z,11.12
2023-12-28T11:07:51.311Z,11.15
2023-12-28T11:08:51.334Z,11.23
2023-12-28T11:09:51.363Z,11.23
2023-12-28T11:10:51.284Z,11.15
2023-12-28T11:11:51.283Z,11.02
2023-12-28T11:12:51.280Z,11.05
2023-12-28T11:13:51.234Z,10.97
2023-12-28T11:14:51.246Z,11.01
2023-12-28T11:15:51.291Z,11.07
2023-12-28T11:16:51.223Z,11.04
2023-12-28T11:17:51.314Z,10.84
2023-12-28T11:18:51.375Z,10.75
2023-12-28T11:19:51.186Z,10.67
2023-12-28T11:20:51.175Z,10.72
2023-12-28T11:21:51.205Z,10.77
2023-12-28T11:22:51.135Z,10.67
2023-12-28T11:23:51.144Z,10.79
2023-12-28T11:24:51.180Z,10.82
2023-12-28T11:25:51.127Z,10.89
2023-12-28T11:26:51.238Z,10.72
2023-12-28T11:27:51.156Z,10.79
2023-12-28T11:28:51.079Z,10.86
2023-12-28T11:29:51.114Z,10.92
2023-12-28T11:30:51.172Z,11.04
2023-12-28T11:31:51.046Z,11.16
2023-12-28T11:32:51.064Z,11.05
2023-12-28T11:33:51.056Z,10.92
2023-12-28T11:34:51.223Z,10.92
2023-12-28T11:35:51.048Z,10.80
2023-12-28T11:36:51.029Z,10.77
2023-12-28T11:37:50.993Z,10.90
2023-12-28T11:38:50.984Z,10.95
2023-12-28T11:39:51.070Z,10.83
2023-12-28T11:40:50.950Z,10.87
2023-12-28T11:41:50.961Z,10.97
2023-12-28T11:42:50.959Z,11.00
2023-12-28T11:43:50.896Z,11.10
2023-12-28T11:44:50.932Z,11.23
2023-12-28T11:45:50.923Z,11.27
2023-12-28T11:46:50.873Z,11.22
2023-12-28T11:47:50.895Z,11.02
2023-12-28T11:48:50.983Z,11.01
2023-12-28T11:49:51.943Z,11.16
2023-12-28T11:50:50.844Z,11.27
2023-12-28T11:51:50.856Z,11.41
2023-12-28T11:52:50.812Z,11.12
2023-12-28T11:53:50.785Z,11.31
2023-12-28T11:54:50.937Z,11.41
2023-12-28T11:55:50.787Z,11.40
2023-12-28T11:56:50.860Z,11.27
2023-12-28T11:57:50.817Z,11.19
2023-12-28T11:58:50.774Z,11.26
2023-12-28T11:59:50.762Z,11.44
2023-12-28T12:00:50.817Z,11.48
2023-12-28T12:01:51.010Z,11.40
2023-12-28T12:02:50.716Z,11.49
2023-12-28T12:03:50.783Z,11.55
2023-12-28T12:04:53.168Z,11.51
2023-12-28T12:05:50.719Z,11.62
2023-12-28T12:06:50.673Z,11.78
2023-12-28T12:07:50.665Z,11.67
2023-12-28T12:08:50.678Z,11.71
2023-12-28T12:09:50.676Z,11.68
2023-12-28T12:10:50.633Z,11.83
2023-12-28T12:11:50.629Z,12.02
2023-12-28T12:12:50.635Z,11.88
2023-12-28T12:13:50.620Z,12.05
2023-12-28T12:14:50.615Z,12.05
2023-12-28T12:15:50.609Z,11.89
2023-12-28T12:16:50.540Z,12.02
2023-12-28T12:17:50.588Z,11.95
2023-12-28T12:18:50.619Z,12.02
2023-12-28T12:19:50.706Z,12.15
2023-12-28T12:20:50.535Z,12.14
2023-12-28T12:21:50.549Z,12.17
2023-12-28T12:22:50.497Z,12.29
2023-12-28T12:23:50.481Z,12.00
2023-12-28T12:24:50.529Z,12.14
2023-12-28T12:25:50.442Z,12.03
2023-12-28T12:26:50.439Z,11.99
2023-12-28T12:27:50.505Z,11.95
2023-12-28T12:28:50.413Z,12.07
2023-12-28T12:29:50.454Z,12.25
2023-12-28T12:30:50.476Z,12.20
2023-12-28T12:31:50.449Z,12.14
2023-12-28T12:32:50.480Z,12.05
2023-12-28T12:33:52.216Z,11.93
2023-12-28T12:34:51.368Z,12.17
2023-12-28T12:35:50.349Z,12.17
2023-12-28T12:36:50.424Z,12.18
2023-12-28T12:37:50.362Z,12.39
2023-12-28T12:38:50.296Z,12.30
2023-12-28T12:39:50.307Z,12.44
2023-12-28T12:40:50.274Z,12.48
2023-12-28T12:41:50.309Z,12.48
2023-12-28T12:42:50.329Z,12.47
2023-12-28T12:43:50.258Z,12.61
2023-12-28T12:44:50.275Z,12.48
2023-12-28T12:45:50.284Z,12.55
2023-12-28T12:46:50.231Z,12.61
2023-12-28T12:47:50.338Z,12.69
2023-12-28T12:48:50.259Z,12.75
2023-12-28T12:49:50.210Z,12.83
2023-12-28T12:50:50.150Z,12.91
2023-12-28T12:51:50.197Z,13.05
2023-12-28T12:52:50.134Z,12.88
2023-12-28T12:53:50.125Z,12.91
2023-12-28T12:54:50.176Z,13.03
2023-12-28T12:55:50.096Z,13.11
2023-12-28T12:56:50.088Z,12.95
2023-12-28T12:57:50.132Z,12.95
2023-12-28T12:58:50.074Z,13.08
2023-12-28T12:59:50.061Z,13.11
2023-12-28T13:00:50.090Z,12.88
2023-12-28T13:01:50.540Z,12.78
2023-12-28T13:02:50.033Z,12.83
2023-12-28T13:03:50.109Z,12.65
2023-12-28T13:04:50.126Z,12.66
2023-12-28T13:05:50.022Z,12.58
2023-12-28T13:06:50.038Z,12.48
2023-12-28T13:07:49.995Z,12.58
2023-12-28T13:08:49.990Z,12.54
2023-12-28T13:09:49.967Z,12.68
2023-12-28T13:10:49.944Z,12.58
2023-12-28T13:11:49.929Z,12.87
2023-12-28T13:12:49.978Z,12.87